createdAt,value
2019-03-11T00:00:57.136Z,0
2019-03-11T00:01:57.124Z,0
2019-03-11T00:02:57.100Z,0
2019-03-11T00:03:57.094Z,0
2019-03-11T00:04:57.069Z,0
2019-03-11T00:05:57.056Z,0
2019-03-11T00:06:57.043Z,0
2019-03-11T00:07:57.025Z,0
2019-03-11T00:08:57.012Z,0
2019-03-11T00:09:57.002Z,0
2019-03-11T00:10:56.988Z,0
2019-03-11T00:11:56.986Z,0
2019-03-11T00:12:56.952Z,0
2019-03-11T00:13:56.944Z,0
2019-03-11T00:14:56.925Z,0
2019-03-11T00:15:56.914Z,0
2019-03-11T00:16:56.897Z,0
2019-03-11T00:17:56.889Z,0
2019-03-11T00:18:56.905Z,0
2019-03-11T00:19:56.847Z,0
2019-03-11T00:20:56.887Z,0
2019-03-11T00:21:56.817Z,0
2019-03-11T00:22:56.805Z,0
2019-03-11T00:23:56.798Z,0
2019-03-11T00:24:56.782Z,0
2019-03-11T00:25:56.778Z,0
2019-03-11T00:26:56.752Z,0
2019-03-11T00:27:56.736Z,0
2019-03-11T00:28:56.722Z,0
2019-03-11T00:29:56.712Z,0
2019-03-11T00:30:56.687Z,0
2019-03-11T00:31:56.674Z,0
2019-03-11T00:32:56.657Z,0
2019-03-11T00:33:56.641Z,0
2019-03-11T00:34:56.703Z,0
2019-03-11T00:35:56.617Z,0
2019-03-11T00:36:56.601Z,0
2019-03-11T00:37:56.586Z,0
2019-03-11T00:38:56.576Z,0
2019-03-11T00:39:56.557Z,0
2019-03-11T00:40:56.545Z,0
2019-03-11T00:41:56.526Z,0
2019-03-11T00:42:56.515Z,0
2019-03-11T00:43:56.564Z,0
2019-03-11T00:44:56.480Z,0
2019-03-11T00:45:56.470Z,0
2019-03-11T00:46:56.462Z,0
2019-03-11T00:48:06.775Z,0
2019-03-11T00:48:56.424Z,0
2019-03-11T00:49:56.415Z,0
2019-03-11T00:50:56.399Z,0
2019-03-11T00:51:56.402Z,0
2019-03-11T00:52:56.366Z,0
2019-03-11T00:53:56.353Z,0
2019-03-11T00:54:56.344Z,0
2019-03-11T00:55:56.323Z,0
2019-03-11T00:56:56.318Z,0
2019-03-11T00:57:56.298Z,0
2019-03-11T00:58:56.288Z,0
2019-03-11T00:59:56.267Z,0
2019-03-11T01:00:56.255Z,0
2019-03-11T01:01:56.254Z,0
2019-03-11T01:02:56.220Z,0
2019-03-11T01:03:55.963Z,0
2019-03-11T01:04:56.203Z,0
2019-03-11T01:05:56.176Z,0
2019-03-11T01:06:56.170Z,0
2019-03-11T01:07:56.164Z,0
2019-03-11T01:08:56.131Z,0
2019-03-11T01:09:56.117Z,0
2019-03-11T01:10:55.621Z,0
2019-03-11T01:11:56.087Z,0
2019-03-11T01:12:56.073Z,0
2019-03-11T01:13:56.061Z,0
2019-03-11T01:14:56.058Z,0
2019-03-11T01:15:55.787Z,0
2019-03-11T01:16:56.014Z,0
2019-03-11T01:17:56.001Z,0
2019-03-11T01:18:56.032Z,0
2019-03-11T01:19:55.973Z,0
2019-03-11T01:20:55.959Z,0
2019-03-11T01:21:55.949Z,0
2019-03-11T01:22:55.696Z,0
2019-03-11T01:23:55.909Z,0
2019-03-11T01:24:55.902Z,0
2019-03-11T01:25:55.883Z,0
2019-03-11T01:26:55.903Z,0
2019-03-11T01:27:55.856Z,0
2019-03-11T01:28:55.839Z,0
2019-03-11T01:29:55.898Z,0
2019-03-11T01:30:55.809Z,0
2019-03-11T01:31:55.795Z,0
2019-03-11T01:32:55.788Z,0
2019-03-11T01:33:55.762Z,0
2019-03-11T01:34:55.762Z,0
2019-03-11T01:35:55.738Z,0
2019-03-11T01:36:55.719Z,0
2019-03-11T01:37:55.708Z,0
2019-03-11T01:38:55.462Z,0
2019-03-11T01:39:55.715Z,0
2019-03-11T01:40:55.660Z,0
2019-03-11T01:41:55.647Z,0
2019-03-11T01:42:56.720Z,0
2019-03-11T01:43:55.621Z,0
2019-03-11T01:44:55.358Z,0
2019-03-11T01:45:55.596Z,0
2019-03-11T01:46:55.577Z,0
2019-03-11T01:47:55.572Z,0
2019-03-11T01:48:55.546Z,0
2019-03-11T01:49:55.535Z,0
2019-03-11T01:50:55.515Z,0
2019-03-11T01:51:55.496Z,0
2019-03-11T01:52:55.483Z,0
2019-03-11T01:53:55.475Z,0
2019-03-11T01:54:55.465Z,0
2019-03-11T01:55:55.200Z,0
2019-03-11T01:56:55.426Z,0
2019-03-11T01:57:55.432Z,0
2019-03-11T01:58:55.420Z,0
2019-03-11T01:59:55.384Z,0
2019-03-11T02:00:55.369Z,0
2019-03-11T02:01:55.767Z,0
2019-03-11T02:02:55.337Z,0
2019-03-11T02:03:55.326Z,0
2019-03-11T02:04:55.307Z,0
2019-03-11T02:05:55.292Z,0
2019-03-11T02:06:55.283Z,0
2019-03-11T02:07:55.272Z,0
2019-03-11T02:08:55.251Z,0
2019-03-11T02:09:55.245Z,0
2019-03-11T02:10:55.221Z,0
2019-03-11T02:11:55.212Z,0
2019-03-11T02:12:55.194Z,0
2019-03-11T02:13:55.180Z,0
2019-03-11T02:14:55.172Z,0
2019-03-11T02:15:55.151Z,0
2019-03-11T02:16:54.898Z,0
2019-03-11T02:17:55.148Z,0
2019-03-11T02:18:55.110Z,0
2019-03-11T02:19:55.096Z,0
2019-03-11T02:20:55.078Z,0
2019-03-11T02:21:55.065Z,0
2019-03-11T02:22:55.053Z,0
2019-03-11T02:23:55.035Z,0
2019-03-11T02:24:55.035Z,0
2019-03-11T02:25:55.006Z,0
2019-03-11T02:26:54.996Z,0
2019-03-11T02:27:54.976Z,0
2019-03-11T02:28:54.966Z,0
2019-03-11T02:29:54.965Z,0
2019-03-11T02:30:55.207Z,0
2019-03-11T02:31:54.930Z,0
2019-03-11T02:32:54.921Z,0
2019-03-11T02:33:54.904Z,0
2019-03-11T02:34:54.894Z,0
2019-03-11T02:35:54.880Z,0
2019-03-11T02:36:54.856Z,0
2019-03-11T02:37:54.868Z,0
2019-03-11T02:38:54.889Z,0
2019-03-11T02:39:54.810Z,0
2019-03-11T02:40:54.795Z,0
2019-03-11T02:41:54.795Z,0
2019-03-11T02:42:54.762Z,0
2019-03-11T02:43:54.760Z,0
2019-03-11T02:44:54.746Z,0
2019-03-11T02:45:54.721Z,0
2019-03-11T02:46:54.738Z,0
2019-03-11T02:47:54.695Z,0
2019-03-11T02:48:54.710Z,0
2019-03-11T02:49:54.668Z,0
2019-03-11T02:50:54.667Z,0
2019-03-11T02:51:54.647Z,0
2019-03-11T02:52:54.649Z,0
2019-03-11T02:53:54.610Z,0
2019-03-11T02:54:54.661Z,0
2019-03-11T02:55:57.927Z,0
2019-03-11T02:56:54.565Z,0
2019-03-11T02:57:54.545Z,0
2019-03-11T02:58:54.539Z,0
2019-03-11T02:59:54.542Z,0
2019-03-11T03:00:54.511Z,0
2019-03-11T03:01:54.502Z,0
2019-03-11T03:02:54.475Z,0
2019-03-11T03:03:54.451Z,0
2019-03-11T03:04:54.456Z,0
2019-03-11T03:05:54.423Z,0
2019-03-11T03:06:54.417Z,0
2019-03-11T03:07:54.398Z,0
2019-03-11T03:08:54.388Z,0
2019-03-11T03:09:54.371Z,0
2019-03-11T03:10:54.373Z,0
2019-03-11T03:11:54.348Z,0
2019-03-11T03:12:54.322Z,0
2019-03-11T03:13:54.428Z,0
2019-03-11T03:14:54.287Z,0
2019-03-11T03:15:54.399Z,0
2019-03-11T03:16:54.282Z,0
2019-03-11T03:17:54.274Z,0
2019-03-11T03:18:54.263Z,0
2019-03-11T03:19:54.213Z,0
2019-03-11T03:20:54.218Z,0
2019-03-11T03:21:54.220Z,0
2019-03-11T03:22:54.224Z,0
2019-03-11T03:23:54.189Z,0
2019-03-11T03:24:54.145Z,0
2019-03-11T03:25:54.141Z,0
2019-03-11T03:26:54.106Z,0
2019-03-11T03:27:54.745Z,0
2019-03-11T03:28:54.085Z,0
2019-03-11T03:29:53.866Z,0
2019-03-11T03:30:54.319Z,0
2019-03-11T03:31:54.081Z,0
2019-03-11T03:32:54.097Z,0
2019-03-11T03:33:54.048Z,0
2019-03-11T03:34:54.010Z,0
2019-03-11T03:35:53.983Z,0
2019-03-11T03:36:53.962Z,0
2019-03-11T03:37:53.949Z,0
2019-03-11T03:38:53.948Z,0
2019-03-11T03:39:53.679Z,0
2019-03-11T03:40:53.904Z,0
2019-03-11T03:41:53.898Z,0
2019-03-11T03:42:54.305Z,0
2019-03-11T03:43:53.912Z,0
2019-03-11T03:44:53.869Z,0
2019-03-11T03:45:53.599Z,0
2019-03-11T03:46:53.578Z,0
2019-03-11T03:47:53.803Z,0
2019-03-11T03:48:54.488Z,0
2019-03-11T03:49:53.855Z,0
2019-03-11T03:50:53.762Z,0
2019-03-11T03:51:53.740Z,0
2019-03-11T03:52:53.731Z,0
2019-03-11T03:53:53.755Z,0
2019-03-11T03:54:53.698Z,0
2019-03-11T03:55:53.697Z,0
2019-03-11T03:56:56.601Z,0
2019-03-11T03:57:53.662Z,0
2019-03-11T03:58:53.686Z,0
2019-03-11T03:59:53.620Z,0
2019-03-11T04:00:53.629Z,0
2019-03-11T04:01:53.618Z,0
2019-03-11T04:02:53.614Z,0
2019-03-11T04:03:53.577Z,0
2019-03-11T04:04:53.540Z,0
2019-03-11T04:05:53.585Z,0
2019-03-11T04:06:53.310Z,0
2019-03-11T04:07:53.524Z,0
2019-03-11T04:08:53.500Z,0
2019-03-11T04:09:53.785Z,0
2019-03-11T04:10:53.472Z,0
2019-03-11T04:11:53.447Z,0
2019-03-11T04:12:53.242Z,0
2019-03-11T04:13:53.417Z,0
2019-03-11T04:14:53.395Z,0
2019-03-11T04:15:53.441Z,0
2019-03-11T04:16:53.380Z,0
2019-03-11T04:17:53.375Z,0
2019-03-11T04:18:53.340Z,0
2019-03-11T04:19:53.321Z,0
2019-03-11T04:20:53.345Z,0
2019-03-11T04:21:53.296Z,0
2019-03-11T04:22:53.292Z,0
2019-03-11T04:23:53.278Z,0
2019-03-11T04:24:53.253Z,0
2019-03-11T04:25:53.244Z,0
2019-03-11T04:26:53.222Z,0
2019-03-11T04:27:52.978Z,0
2019-03-11T04:28:53.239Z,0
2019-03-11T04:29:53.173Z,0
2019-03-11T04:30:53.159Z,0
2019-03-11T04:31:53.148Z,0
2019-03-11T04:32:53.149Z,0
2019-03-11T04:33:53.114Z,0
2019-03-11T04:34:53.111Z,0
2019-03-11T04:35:53.115Z,0
2019-03-11T04:36:53.068Z,0
2019-03-11T04:37:53.058Z,0
2019-03-11T04:38:53.039Z,0
2019-03-11T04:39:53.030Z,0
2019-03-11T04:40:53.014Z,0
2019-03-11T04:41:52.992Z,0
2019-03-11T04:42:52.985Z,0
2019-03-11T04:43:52.967Z,0
2019-03-11T04:44:52.949Z,0
2019-03-11T04:45:52.933Z,0
2019-03-11T04:46:52.922Z,0
2019-03-11T04:47:52.981Z,0
2019-03-11T04:48:52.894Z,0
2019-03-11T04:49:52.889Z,0
2019-03-11T04:50:52.636Z,0
2019-03-11T04:51:52.855Z,0
2019-03-11T04:52:52.595Z,0
2019-03-11T04:53:52.819Z,0
2019-03-11T04:54:52.803Z,0
2019-03-11T04:55:52.804Z,0
2019-03-11T04:56:52.780Z,0
2019-03-11T04:57:52.531Z,0
2019-03-11T04:58:52.761Z,0
2019-03-11T04:59:52.732Z,0
2019-03-11T05:00:52.727Z,0
2019-03-11T05:01:52.704Z,4
2019-03-11T05:02:52.696Z,4
2019-03-11T05:03:53.478Z,0
2019-03-11T05:04:52.663Z,0
2019-03-11T05:05:52.659Z,4
2019-03-11T05:06:52.636Z,4
2019-03-11T05:07:52.615Z,4
2019-03-11T05:08:52.602Z,4
2019-03-11T05:09:52.583Z,4
2019-03-11T05:10:52.566Z,4
2019-03-11T05:11:52.543Z,8
2019-03-11T05:12:52.538Z,4
2019-03-11T05:13:52.516Z,8
2019-03-11T05:14:52.495Z,8
2019-03-11T05:15:52.482Z,8
2019-03-11T05:16:52.472Z,8
2019-03-11T05:17:55.426Z,12
2019-03-11T05:18:52.446Z,12
2019-03-11T05:19:52.211Z,20
2019-03-11T05:20:52.414Z,20
2019-03-11T05:21:52.404Z,24
2019-03-11T05:22:54.642Z,28
2019-03-11T05:23:52.371Z,36
2019-03-11T05:24:52.353Z,36
2019-03-11T05:25:52.350Z,40
2019-03-11T05:26:52.332Z,44
2019-03-11T05:27:52.307Z,48
2019-03-11T05:28:54.294Z,56
2019-03-11T05:29:52.280Z,60
2019-03-11T05:30:52.274Z,68
2019-03-11T05:31:52.265Z,76
2019-03-11T05:32:52.017Z,84
2019-03-11T05:33:52.232Z,100
2019-03-11T05:34:52.210Z,104
2019-03-11T05:35:52.205Z,124
2019-03-11T05:36:52.183Z,148
2019-03-11T05:37:52.167Z,160
2019-03-11T05:38:52.165Z,164
2019-03-11T05:39:52.136Z,144
2019-03-11T05:40:52.262Z,140
2019-03-11T05:41:52.110Z,176
2019-03-11T05:42:52.111Z,180
2019-03-11T05:43:52.085Z,176
2019-03-11T05:44:52.066Z,188
2019-03-11T05:45:52.059Z,244
2019-03-11T05:46:52.067Z,320
2019-03-11T05:47:52.055Z,308
2019-03-11T05:48:52.021Z,300
2019-03-11T05:49:52.020Z,292
2019-03-11T05:50:51.998Z,344
2019-03-11T05:51:54.088Z,392
2019-03-11T05:52:51.983Z,488
2019-03-11T05:53:51.951Z,568
2019-03-11T05:54:51.933Z,660
2019-03-11T05:55:52.263Z,752
2019-03-11T05:56:51.906Z,800
2019-03-11T05:57:51.651Z,800
2019-03-11T05:58:51.879Z,832
2019-03-11T05:59:51.865Z,856
2019-03-11T06:00:51.851Z,868
2019-03-11T06:01:51.834Z,908
2019-03-11T06:02:51.822Z,960
2019-03-11T06:03:51.807Z,1052
2019-03-11T06:04:51.801Z,1120
2019-03-11T06:05:51.802Z,1020
2019-03-11T06:06:51.764Z,1028
2019-03-11T06:07:51.768Z,1080
2019-03-11T06:08:51.734Z,1128
2019-03-11T06:09:51.721Z,1080
2019-03-11T06:10:51.707Z,1248
2019-03-11T06:11:51.692Z,1432
2019-03-11T06:12:51.683Z,1548
2019-03-11T06:13:51.664Z,1744
2019-03-11T06:14:51.655Z,1956
2019-03-11T06:15:51.643Z,2044
2019-03-11T06:16:51.630Z,2120
2019-03-11T06:17:52.115Z,2088
2019-03-11T06:18:51.911Z,2140
2019-03-11T06:19:51.583Z,2140
2019-03-11T06:20:51.564Z,1920
2019-03-11T06:21:51.554Z,1844
2019-03-11T06:22:51.537Z,1836
2019-03-11T06:23:51.537Z,1940
2019-03-11T06:24:51.510Z,1904
2019-03-11T06:25:51.506Z,2088
2019-03-11T06:26:51.486Z,2252
2019-03-11T06:27:51.469Z,2352
2019-03-11T06:28:51.459Z,2484
2019-03-11T06:29:51.444Z,2668
2019-03-11T06:30:51.431Z,2760
2019-03-11T06:31:51.414Z,2644
2019-03-11T06:32:51.397Z,2452
2019-03-11T06:33:51.389Z,2376
2019-03-11T06:34:51.372Z,2472
2019-03-11T06:35:51.365Z,2568
2019-03-11T06:36:51.341Z,2420
2019-03-11T06:37:51.334Z,2420
2019-03-11T06:38:51.314Z,2356
2019-03-11T06:39:51.306Z,2288
2019-03-11T06:40:53.139Z,2640
2019-03-11T06:41:51.275Z,3236
2019-03-11T06:42:51.265Z,3940
2019-03-11T06:43:51.251Z,4340
2019-03-11T06:44:51.235Z,4564
2019-03-11T06:45:51.215Z,4980
2019-03-11T06:46:53.250Z,5212
2019-03-11T06:47:51.203Z,5276
2019-03-11T06:48:51.186Z,5476
2019-03-11T06:49:51.170Z,5464
2019-03-11T06:50:51.167Z,5520
2019-03-11T06:51:51.141Z,5560
2019-03-11T06:52:51.128Z,5608
2019-03-11T06:53:51.113Z,5628
2019-03-11T06:54:51.096Z,5888
2019-03-11T06:55:51.085Z,6068
2019-03-11T06:56:50.832Z,6408
2019-03-11T06:57:51.061Z,6244
2019-03-11T06:58:51.061Z,6000
2019-03-11T06:59:51.034Z,6080
2019-03-11T07:00:51.027Z,6152
2019-03-11T07:01:51.005Z,6228
2019-03-11T07:02:50.995Z,6312
2019-03-11T07:03:50.979Z,6484
2019-03-11T07:04:50.970Z,7284
2019-03-11T07:05:50.712Z,8336
2019-03-11T07:06:50.952Z,7376
2019-03-11T07:07:50.940Z,7964
2019-03-11T07:08:50.934Z,9776
2019-03-11T07:09:50.904Z,9728
2019-03-11T07:10:50.894Z,10176
2019-03-11T07:11:50.877Z,13108
2019-03-11T07:12:50.873Z,14304
2019-03-11T07:13:50.866Z,16416
2019-03-11T07:14:50.839Z,22656
2019-03-11T07:15:50.833Z,23072
2019-03-11T07:16:50.814Z,24096
2019-03-11T07:17:50.856Z,24480
2019-03-11T07:18:50.800Z,21216
2019-03-11T07:19:50.785Z,22368
2019-03-11T07:20:50.771Z,16096
2019-03-11T07:21:50.763Z,16864
2019-03-11T07:22:50.753Z,17504
2019-03-11T07:23:50.740Z,13032
2019-03-11T07:24:50.736Z,13876
2019-03-11T07:25:50.736Z,20000
2019-03-11T07:26:50.718Z,22784
2019-03-11T07:27:50.702Z,22080
2019-03-11T07:28:50.697Z,22208
2019-03-11T07:29:50.700Z,25376
2019-03-11T07:30:50.672Z,27072
2019-03-11T07:31:50.666Z,26048
2019-03-11T07:32:50.664Z,23424
2019-03-11T07:33:50.723Z,20640
2019-03-11T07:34:50.646Z,21280
2019-03-11T07:35:50.673Z,21472
2019-03-11T07:36:50.627Z,22272
2019-03-11T07:37:50.624Z,18752
2019-03-11T07:38:50.616Z,12720
2019-03-11T07:39:50.604Z,20064
2019-03-11T07:40:50.597Z,24672
2019-03-11T07:41:50.591Z,25664
2019-03-11T07:42:50.584Z,24288
2019-03-11T07:43:50.581Z,17472
2019-03-11T07:44:50.571Z,23392
2019-03-11T07:45:50.561Z,26016
2019-03-11T07:46:52.694Z,25696
2019-03-11T07:47:50.553Z,23136
2019-03-11T07:48:50.301Z,23488
2019-03-11T07:49:50.296Z,23456
2019-03-11T07:50:50.531Z,20384
2019-03-11T07:51:50.525Z,22016
2019-03-11T07:52:50.923Z,21344
2019-03-11T07:53:50.514Z,21344
2019-03-11T07:54:50.517Z,20736
2019-03-11T07:55:50.506Z,16640
2019-03-11T07:56:50.493Z,13512
2019-03-11T07:57:50.511Z,10008
2019-03-11T07:58:50.497Z,12752
2019-03-11T07:59:50.478Z,11072
2019-03-11T08:01:00.973Z,11784
2019-03-11T08:01:50.532Z,11888
2019-03-11T08:02:50.470Z,9908
2019-03-11T08:03:50.450Z,11684
2019-03-11T08:04:50.443Z,16480
2019-03-11T08:05:50.436Z,13248
2019-03-11T08:06:50.430Z,10188
2019-03-11T08:07:50.528Z,11176
2019-03-11T08:08:50.417Z,10984
2019-03-11T08:09:50.172Z,10880
2019-03-11T08:10:50.420Z,11360
2019-03-11T08:11:50.398Z,9752
2019-03-11T08:12:50.387Z,10780
2019-03-11T08:13:50.891Z,10632
2019-03-11T08:14:50.393Z,7724
2019-03-11T08:15:50.359Z,7544
2019-03-11T08:16:50.383Z,6020
2019-03-11T08:17:50.363Z,6208
2019-03-11T08:18:50.646Z,8256
2019-03-11T08:19:50.324Z,8156
2019-03-11T08:20:50.323Z,7612
2019-03-11T08:21:50.310Z,7196
2019-03-11T08:22:50.315Z,8032
2019-03-11T08:23:50.556Z,7580
2019-03-11T08:24:50.310Z,6048
2019-03-11T08:25:50.332Z,6408
2019-03-11T08:26:50.275Z,7492
2019-03-11T08:27:50.017Z,6512
2019-03-11T08:28:50.245Z,6840
2019-03-11T08:29:50.238Z,5632
2019-03-11T08:30:50.222Z,7156
2019-03-11T08:31:50.214Z,9020
2019-03-11T08:32:50.207Z,9204
2019-03-11T08:33:50.193Z,10284
2019-03-11T08:34:50.186Z,9132
2019-03-11T08:35:50.177Z,9272
2019-03-11T08:36:50.170Z,8472
2019-03-11T08:37:50.154Z,7196
2019-03-11T08:38:50.149Z,6172
2019-03-11T08:39:50.138Z,6752
2019-03-11T08:40:50.248Z,7452
2019-03-11T08:41:50.118Z,7692
2019-03-11T08:42:50.110Z,6620
2019-03-11T08:43:50.090Z,7340
2019-03-11T08:44:50.079Z,5976
2019-03-11T08:45:50.069Z,5684
2019-03-11T08:46:51.841Z,6480
2019-03-11T08:47:50.054Z,6452
2019-03-11T08:48:50.038Z,6500
2019-03-11T08:49:50.025Z,7704
2019-03-11T08:50:50.021Z,6540
2019-03-11T08:51:50.009Z,5600
2019-03-11T08:52:50.012Z,4460
2019-03-11T08:53:49.984Z,5416
2019-03-11T08:54:49.975Z,4804
2019-03-11T08:55:49.737Z,4164
2019-03-11T08:56:49.950Z,4352
2019-03-11T08:57:49.952Z,5060
2019-03-11T08:58:49.940Z,5884
2019-03-11T08:59:49.919Z,5084
2019-03-11T09:00:49.915Z,5372
2019-03-11T09:01:49.654Z,4356
2019-03-11T09:02:49.894Z,4468
2019-03-11T09:03:52.722Z,4952
2019-03-11T09:04:49.863Z,5628
2019-03-11T09:05:49.857Z,5200
2019-03-11T09:06:49.840Z,4456
2019-03-11T09:07:49.837Z,4300
2019-03-11T09:08:49.819Z,5504
2019-03-11T09:09:49.831Z,7136
2019-03-11T09:10:49.809Z,4196
2019-03-11T09:11:49.786Z,4048
2019-03-11T09:12:49.783Z,4812
2019-03-11T09:13:49.761Z,5716
2019-03-11T09:14:49.754Z,5076
2019-03-11T09:15:49.739Z,4616
2019-03-11T09:16:49.732Z,5280
2019-03-11T09:17:49.745Z,6196
2019-03-11T09:18:49.707Z,5468
2019-03-11T09:19:49.701Z,5708
2019-03-11T09:20:49.686Z,5972
2019-03-11T09:21:49.670Z,5828
2019-03-11T09:22:49.672Z,7340
2019-03-11T09:23:49.655Z,9848
2019-03-11T09:24:49.639Z,11604
2019-03-11T09:25:49.624Z,12532
2019-03-11T09:26:49.641Z,13148
2019-03-11T09:27:50.712Z,13284
2019-03-11T09:28:49.590Z,12700
2019-03-11T09:29:49.614Z,11616
2019-03-11T09:30:49.568Z,11772
2019-03-11T09:31:49.553Z,11252
2019-03-11T09:32:49.553Z,11612
2019-03-11T09:33:49.534Z,12008
2019-03-11T09:34:49.531Z,10676
2019-03-11T09:35:49.513Z,8988
2019-03-11T09:36:49.507Z,7088
2019-03-11T09:37:49.489Z,6196
2019-03-11T09:38:49.482Z,5800
2019-03-11T09:39:49.467Z,6416
2019-03-11T09:40:49.457Z,6616
2019-03-11T09:41:49.450Z,7588
2019-03-11T09:42:49.451Z,8928
2019-03-11T09:43:49.513Z,12396
2019-03-11T09:44:49.432Z,12020
2019-03-11T09:45:49.403Z,13448
2019-03-11T09:46:49.402Z,12264
2019-03-11T09:47:49.219Z,10916
2019-03-11T09:48:52.063Z,13444
2019-03-11T09:49:49.360Z,15780
2019-03-11T09:50:49.348Z,13816
2019-03-11T09:51:49.348Z,11656
2019-03-11T09:52:49.341Z,14244
2019-03-11T09:53:49.082Z,12492
2019-03-11T09:54:49.307Z,11760
2019-03-11T09:55:49.330Z,11808
2019-03-11T09:56:50.824Z,12492
2019-03-11T09:57:49.289Z,11820
2019-03-11T09:58:49.273Z,7912
2019-03-11T09:59:49.255Z,8500
2019-03-11T10:00:49.251Z,6288
2019-03-11T10:01:49.232Z,5288
2019-03-11T10:02:59.377Z,6172
2019-03-11T10:03:49.214Z,7132
2019-03-11T10:04:49.200Z,7872
2019-03-11T10:05:49.191Z,6996
2019-03-11T10:06:49.185Z,5472
2019-03-11T10:07:49.297Z,5268
2019-03-11T10:08:49.163Z,5720
2019-03-11T10:09:48.911Z,6212
2019-03-11T10:10:49.147Z,5900
2019-03-11T10:11:49.131Z,5964
2019-03-11T10:12:48.967Z,5556
2019-03-11T10:13:49.116Z,5240
2019-03-11T10:14:49.105Z,6712
2019-03-11T10:15:49.108Z,8128
2019-03-11T10:16:49.084Z,8292
2019-03-11T10:17:49.071Z,9556
2019-03-11T10:18:50.279Z,11420
2019-03-11T10:19:49.049Z,13528
2019-03-11T10:20:49.042Z,15872
2019-03-11T10:21:49.039Z,18208
2019-03-11T10:22:49.022Z,19520
2019-03-11T10:23:49.004Z,19840
2019-03-11T10:24:49.006Z,20864
2019-03-11T10:25:48.990Z,21952
2019-03-11T10:26:48.735Z,21056
2019-03-11T10:27:49.028Z,19584
2019-03-11T10:28:48.962Z,17664
2019-03-11T10:29:48.945Z,16704
2019-03-11T10:30:48.937Z,16832
2019-03-11T10:31:48.948Z,17504
2019-03-11T10:32:48.914Z,20032
2019-03-11T10:33:48.901Z,21760
2019-03-11T10:34:48.897Z,18688
2019-03-11T10:35:48.884Z,19776
2019-03-11T10:36:48.887Z,21088
2019-03-11T10:37:48.879Z,18432
2019-03-11T10:38:48.862Z,12732
2019-03-11T10:39:50.453Z,13964
2019-03-11T10:40:48.843Z,12736
2019-03-11T10:41:48.835Z,12556
2019-03-11T10:42:48.828Z,14096
2019-03-11T10:43:48.814Z,15484
2019-03-11T10:44:48.805Z,13192
2019-03-11T10:45:48.823Z,10020
2019-03-11T10:46:49.863Z,9740
2019-03-11T10:47:48.789Z,10360
2019-03-11T10:48:48.779Z,13900
2019-03-11T10:49:48.777Z,12108
2019-03-11T10:50:48.922Z,8312
2019-03-11T10:51:48.744Z,7284
2019-03-11T10:52:48.738Z,7084
2019-03-11T10:53:48.780Z,8140
2019-03-11T10:54:48.724Z,8604
2019-03-11T10:55:48.717Z,10808
2019-03-11T10:56:48.703Z,10500
2019-03-11T10:57:48.711Z,11340
2019-03-11T10:58:48.694Z,12208
2019-03-11T10:59:48.677Z,11404
2019-03-11T11:00:48.677Z,15612
2019-03-11T11:01:48.658Z,16928
2019-03-11T11:02:48.651Z,17024
2019-03-11T11:03:48.643Z,13312
2019-03-11T11:04:50.495Z,9236
2019-03-11T11:05:48.625Z,9556
2019-03-11T11:06:48.616Z,11316
2019-03-11T11:07:48.368Z,11008
2019-03-11T11:08:48.596Z,10976
2019-03-11T11:09:48.596Z,10836
2019-03-11T11:10:48.577Z,11936
2019-03-11T11:11:48.572Z,13376
2019-03-11T11:12:48.559Z,13456
2019-03-11T11:13:48.305Z,14448
2019-03-11T11:14:48.541Z,15032
2019-03-11T11:15:48.532Z,15584
2019-03-11T11:16:51.186Z,15532
2019-03-11T11:17:48.519Z,15928
2019-03-11T11:18:48.516Z,16352
2019-03-11T11:19:48.498Z,16608
2019-03-11T11:20:48.539Z,16736
2019-03-11T11:21:48.475Z,16832
2019-03-11T11:22:48.469Z,16896
2019-03-11T11:23:48.458Z,17536
2019-03-11T11:24:48.454Z,17760
2019-03-11T11:25:48.441Z,18464
2019-03-11T11:26:48.437Z,18784
2019-03-11T11:27:48.421Z,19488
2019-03-11T11:28:48.434Z,20192
2019-03-11T11:29:48.402Z,20448
2019-03-11T11:30:48.418Z,20576
2019-03-11T11:31:48.143Z,20608
2019-03-11T11:32:48.376Z,20576
2019-03-11T11:33:48.368Z,20544
2019-03-11T11:34:48.360Z,20416
2019-03-11T11:35:48.356Z,20128
2019-03-11T11:36:48.346Z,19648
2019-03-11T11:37:48.362Z,19040
2019-03-11T11:38:48.332Z,18336
2019-03-11T11:39:48.319Z,17568
2019-03-11T11:40:48.312Z,16736
2019-03-11T11:41:48.340Z,15840
2019-03-11T11:42:48.296Z,14900
2019-03-11T11:43:48.287Z,13972
2019-03-11T11:44:48.283Z,13292
2019-03-11T11:45:48.320Z,12516
2019-03-11T11:46:48.272Z,11832
2019-03-11T11:47:48.256Z,10496
2019-03-11T11:48:48.247Z,8316
2019-03-11T11:49:48.239Z,6908
2019-03-11T11:50:47.993Z,7276
2019-03-11T11:51:48.226Z,5472
2019-03-11T11:52:48.226Z,5388
2019-03-11T11:53:48.210Z,6264
2019-03-11T11:54:48.219Z,6300
2019-03-11T11:55:57.174Z,7384
2019-03-11T11:56:48.183Z,6576
2019-03-11T11:57:48.180Z,6020
2019-03-11T11:58:48.168Z,5184
2019-03-11T11:59:58.719Z,5140
2019-03-11T12:00:48.154Z,6232
2019-03-11T12:01:48.138Z,6676
2019-03-11T12:02:48.139Z,7080
2019-03-11T12:03:47.885Z,6148
2019-03-11T12:04:48.116Z,6860
2019-03-11T12:05:47.863Z,6572
2019-03-11T12:06:48.094Z,5180
2019-03-11T12:07:48.135Z,6208
2019-03-11T12:08:48.100Z,8584
2019-03-11T12:09:48.073Z,7164
2019-03-11T12:10:48.065Z,5492
2019-03-11T12:11:48.070Z,4720
2019-03-11T12:12:48.037Z,4476
2019-03-11T12:13:48.032Z,5776
2019-03-11T12:14:48.018Z,5364
2019-03-11T12:15:48.011Z,4052
2019-03-11T12:16:48.006Z,3256
2019-03-11T12:17:48.009Z,3320
2019-03-11T12:18:47.981Z,3592
2019-03-11T12:19:47.985Z,3748
2019-03-11T12:20:48.027Z,3340
2019-03-11T12:21:48.016Z,3020
2019-03-11T12:22:49.949Z,3008
2019-03-11T12:23:53.598Z,3284
2019-03-11T12:24:47.916Z,4264
2019-03-11T12:25:47.906Z,3820
2019-03-11T12:26:48.712Z,3776
2019-03-11T12:28:00.694Z,3324
2019-03-11T12:28:47.871Z,3252
2019-03-11T12:29:47.860Z,3492
2019-03-11T12:30:47.849Z,4956
2019-03-11T12:31:47.839Z,6212
2019-03-11T12:32:47.840Z,5212
2019-03-11T12:33:47.823Z,6816
2019-03-11T12:34:47.808Z,7680
2019-03-11T12:35:47.800Z,7376
2019-03-11T12:36:47.791Z,6412
2019-03-11T12:37:47.775Z,6288
2019-03-11T12:38:47.766Z,6640
2019-03-11T12:39:47.766Z,7652
2019-03-11T12:40:47.762Z,8336
2019-03-11T12:41:47.930Z,8900
2019-03-11T12:42:47.734Z,9416
2019-03-11T12:43:47.460Z,10440
2019-03-11T12:44:47.693Z,11224
2019-03-11T12:45:47.689Z,11540
2019-03-11T12:46:47.675Z,11844
2019-03-11T12:47:47.663Z,12108
2019-03-11T12:48:47.648Z,11968
2019-03-11T12:49:47.683Z,11416
2019-03-11T12:50:47.637Z,10664
2019-03-11T12:51:56.911Z,9820
2019-03-11T12:52:47.603Z,9552
2019-03-11T12:53:47.592Z,8984
2019-03-11T12:54:47.592Z,8676
2019-03-11T12:55:47.571Z,9024
2019-03-11T12:56:47.555Z,9452
2019-03-11T12:57:47.560Z,9208
2019-03-11T12:58:49.053Z,8860
2019-03-11T12:59:48.109Z,8796
2019-03-11T13:00:47.509Z,8840
2019-03-11T13:01:47.507Z,8944
2019-03-11T13:02:47.488Z,8944
2019-03-11T13:03:47.492Z,9244
2019-03-11T13:04:47.475Z,9448
2019-03-11T13:05:47.457Z,9708
2019-03-11T13:06:47.447Z,9796
2019-03-11T13:07:47.451Z,9732
2019-03-11T13:08:47.424Z,9404
2019-03-11T13:09:47.412Z,8896
2019-03-11T13:10:47.718Z,9060
2019-03-11T13:11:47.397Z,9684
2019-03-11T13:12:47.391Z,10492
2019-03-11T13:13:47.378Z,11716
2019-03-11T13:14:47.362Z,12776
2019-03-11T13:15:47.376Z,13376
2019-03-11T13:16:47.340Z,13676
2019-03-11T13:17:47.327Z,13572
2019-03-11T13:18:47.333Z,13264
2019-03-11T13:19:47.309Z,11836
2019-03-11T13:20:47.296Z,10752
2019-03-11T13:21:47.291Z,8788
2019-03-11T13:22:47.276Z,8020
2019-03-11T13:23:48.758Z,6896
2019-03-11T13:24:47.257Z,5884
2019-03-11T13:25:47.246Z,5228
2019-03-11T13:26:46.995Z,4392
2019-03-11T13:27:47.227Z,4228
2019-03-11T13:28:47.211Z,4340
2019-03-11T13:29:47.209Z,5308
2019-03-11T13:30:47.201Z,5068
2019-03-11T13:31:47.274Z,5544
2019-03-11T13:32:47.179Z,5852
2019-03-11T13:33:47.165Z,5464
2019-03-11T13:34:47.167Z,7396
2019-03-11T13:35:47.141Z,5872
2019-03-11T13:36:47.134Z,5296
2019-03-11T13:37:47.127Z,6180
2019-03-11T13:38:47.116Z,8668
2019-03-11T13:39:47.107Z,12128
2019-03-11T13:40:47.091Z,11964
2019-03-11T13:41:47.093Z,11940
2019-03-11T13:42:47.073Z,13476
2019-03-11T13:43:48.621Z,16832
2019-03-11T13:44:47.067Z,17728
2019-03-11T13:45:46.807Z,17216